Lammy — PBRE — position and weather

sailwx.info

Track history (hours):
 
Tides and Currents Weather Stations Pressure Air Temp Water Temp Dewpoint Dewpoint Depression Visibility Wind Speed Wind Dir Waves Ship Positions

Lammy

Last reported at 2016-Aug-26 22:32 UTC. Time now 2016-Aug-27 03:00 UTC.
Position N 57°47' E 010°43'.

Length 95 m; draft 5.2 m.

Type: Cargo ship. MMSI: 245391000.

Date/timePositionNaut miles runAvg speedWind from/ knotsBaromVisibWave heightAir tempDewpointWater temp
2016-Aug-26 22:32N 57°47' E 010°43'9 9.4
2016-Aug-26 21:33N 57°42' E 010°58'1010.3
2016-Aug-26 20:33N 57°35' E 011°11'1110.9
2016-Aug-26 19:33N 57°28' E 011°26'1110.6
2016-Aug-26 18:33N 57°18' E 011°34'2110.6
2016-Aug-26 16:32N 56°58' E 011°49'1010.3
2016-Aug-26 15:33N 56°49' E 011°58'1110.6
2016-Aug-26 14:30N 56°39' E 012°07'1010.8
2016-Aug-26 13:33N 56°30' E 012°14'1812.7
2016-Aug-26 12:10N 56°14' E 012°27'813.3
2016-Aug-26 11:33N 56°06' E 012°34'1212.2
2016-Aug-26 10:33N 55°56' E 012°44'1111.4
2016-Aug-26 09:33N 55°44' E 012°42'1211.7
2016-Aug-26 08:33N 55°33' E 012°43'1111.3
2016-Aug-26 07:34N 55°21' E 012°40'10 9.7
2016-Aug-26 06:33N 55°16' E 012°55'2211.2
2016-Aug-26 04:33N 55°15' E 013°34'1111.4
2016-Aug-26 03:33N 55°13' E 013°54'1110.9
2016-Aug-26 02:33N 55°13' E 014°13'1110.9
2016-Aug-26 01:33N 55°21' E 014°26'1110.7
2016-Aug-26 00:33N 55°28' E 014°40'1110.8
2016-Aug-25 23:33N 55°33' E 014°57'1111.2
2016-Aug-25 22:33N 55°38' E 015°14'1111.2
2016-Aug-25 21:33N 55°44' E 015°32'1111.4
2016-Aug-25 20:33N 55°50' E 015°49'  
2016-Aug-21 11:31N 55°43' E 015°43'1010.8
2016-Aug-21 10:33N 55°38' E 015°26'1110.7
2016-Aug-21 09:33N 55°33' E 015°10'1110.8
2016-Aug-21 08:33N 55°27' E 014°54'1110.8
2016-Aug-21 07:33N 55°21' E 014°38'1111.2
2016-Aug-21 06:33N 55°13' E 014°24'1111.2
2016-Aug-21 05:33N 55°10' E 014°05'1211.6
2016-Aug-21 04:32N 55°12' E 013°45'1111.7
2016-Aug-21 03:33N 55°13' E 013°24'1211.8
2016-Aug-21 02:33N 55°15' E 013°04'1211.7
2016-Aug-21 01:33N 55°16' E 012°44'10 9.9
2016-Aug-21 00:33N 55°26' E 012°40'1010.3
2016-Aug-20 23:33N 55°36' E 012°42'1010.5
2016-Aug-20 22:33N 55°47' E 012°42'1211.5
2016-Aug-20 21:33N 55°58' E 012°40'10 9.8
2016-Aug-20 20:33N 56°07' E 012°30'1212.2
2016-Aug-20 19:33N 56°14' E 012°13'1312.2
2016-Aug-20 18:29N 56°24' E 011°60'1212.5
2016-Aug-20 17:32N 56°36' E 011°55'1212.2
2016-Aug-20 16:33N 56°48' E 011°49'1211.9
2016-Aug-20 15:32N 56°59' E 011°43'1111.4
2016-Aug-20 14:33N 57°10' E 011°37'1211.6
2016-Aug-20 13:33N 57°21' E 011°28'1111.0
2016-Aug-20 12:33N 57°30' E 011°17'1110.7
2016-Aug-20 11:33N 57°38' E 011°04'1010.4
2016-Aug-20 10:33N 57°45' E 010°49'1510.5
2016-Aug-20 09:09N 57°44' E 010°22'710.4
2016-Aug-20 08:31N 57°41' E 010°10'2311.7
2016-Aug-20 06:33N 57°31' E 009°31'36711.8
2016-Aug-18 23:23N 53°39' E 001°09'1112.5
2016-Aug-18 22:31N 53°32' E 000°56'1313.0
2016-Aug-18 21:33N 53°21' E 000°45'1413.3
2016-Aug-18 20:31N 53°09' E 000°35'1312.9
2016-Aug-18 19:29N 52°57' E 000°23'1010.6
2016-Aug-18 18:32N 52°47' E 000°22'2 1.8
2016-Aug-18 17:33N 52°46' E 000°24'0 0.2
2016-Aug-18 16:33N 52°46' E 000°24'0 0.0
2016-Aug-18 15:31N 52°46' E 000°24'0 0.0
2016-Aug-18 14:29N 52°46' E 000°24'0 0.0
2016-Aug-18 13:32N 52°46' E 000°24'0 0.0
2016-Aug-18 12:31N 52°46' E 000°24'0 0.0
2016-Aug-18 11:33N 52°46' E 000°24'0 0.0
2016-Aug-18 10:29N 52°46' E 000°24'0 0.0
2016-Aug-18 09:25N 52°46' E 000°24'0 0.0
2016-Aug-18 08:28N 52°46' E 000°24'0 0.0
2016-Aug-18 07:33N 52°46' E 000°24'0 0.0
2016-Aug-18 06:33N 52°46' E 000°24'1 0.6
2016-Aug-18 05:32N 52°46' E 000°23'7 7.0
2016-Aug-18 04:33N 52°53' E 000°22'5 5.3
2016-Aug-18 03:32N 52°58' E 000°23'1 0.7
2016-Aug-18 02:34N 52°58' E 000°22'10 9.7
2016-Aug-18 01:32N 53°06' E 000°31'9 8.6
2016-Aug-18 00:31N 53°14' E 000°37'7 7.4
2016-Aug-17 23:33N 53°21' E 000°34'7 7.5
2016-Aug-17 22:33N 53°26' E 000°25'7 7.5
2016-Aug-17 21:33N 53°31' E 000°16'10 9.9
2016-Aug-17 20:33N 53°35' E 000°01'1312.7
2016-Aug-17 19:34N 53°44' W 000°15'1 1.1
2016-Aug-17 18:33N 53°45' W 000°16'0 0.0
2016-Aug-17 17:33N 53°45' W 000°16'0 0.0
2016-Aug-17 16:34N 53°45' W 000°16'0 0.0
2016-Aug-17 15:33N 53°45' W 000°16'0 0.0
2016-Aug-17 14:34N 53°45' W 000°16'0 0.0
2016-Aug-17 13:33N 53°45' W 000°16'0 0.0
2016-Aug-17 12:34N 53°45' W 000°16'0 0.0
2016-Aug-17 11:34N 53°45' W 000°16'0 0.0
2016-Aug-17 10:33N 53°45' W 000°16'0 0.0
2016-Aug-17 09:33N 53°45' W 000°16'0 0.0
2016-Aug-17 08:33N 53°45' W 000°16'0 0.0
2016-Aug-17 07:33N 53°45' W 000°16'0 0.0
2016-Aug-17 06:33N 53°45' W 000°16'0 0.0
2016-Aug-17 05:34N 53°45' W 000°16'0 0.0
2016-Aug-17 04:33N 53°45' W 000°16'0 0.0
2016-Aug-17 03:33N 53°45' W 000°16'0 0.0
2016-Aug-17 02:34N 53°45' W 000°16'0 0.0
2016-Aug-17 01:34N 53°45' W 000°16'0 0.0
2016-Aug-17 00:34N 53°45' W 000°16'0 0.0
2016-Aug-16 23:34N 53°45' W 000°16'0 0.0
2016-Aug-16 22:33N 53°45' W 000°16'  
Track history (hours):
 
Tides and Currents Weather Stations Pressure Air Temp Water Temp Dewpoint Dewpoint Depression Visibility Wind Speed Wind Dir Waves Ship Positions

Lammy

Last reported at 2016-Aug-26 22:32 UTC. Time now 2016-Aug-27 03:00 UTC.
Position N 57°47' E 010°43'.

Length 95 m; draft 5.2 m.

Type: Cargo ship. MMSI: 245391000.

Date/timePositionNaut miles runAvg speedWind from/ knotsBaromVisibWave heightAir tempDewpointWater temp
2016-Aug-26 22:32N 57°47' E 010°43'9 9.4
2016-Aug-26 21:33N 57°42' E 010°58'1010.3
2016-Aug-26 20:33N 57°35' E 011°11'1110.9
2016-Aug-26 19:33N 57°28' E 011°26'1110.6
2016-Aug-26 18:33N 57°18' E 011°34'2110.6
2016-Aug-26 16:32N 56°58' E 011°49'1010.3
2016-Aug-26 15:33N 56°49' E 011°58'1110.6
2016-Aug-26 14:30N 56°39' E 012°07'1010.8
2016-Aug-26 13:33N 56°30' E 012°14'1812.7
2016-Aug-26 12:10N 56°14' E 012°27'813.3
2016-Aug-26 11:33N 56°06' E 012°34'1212.2
2016-Aug-26 10:33N 55°56' E 012°44'1111.4
2016-Aug-26 09:33N 55°44' E 012°42'1211.7
2016-Aug-26 08:33N 55°33' E 012°43'1111.3
2016-Aug-26 07:34N 55°21' E 012°40'10 9.7
2016-Aug-26 06:33N 55°16' E 012°55'2211.2
2016-Aug-26 04:33N 55°15' E 013°34'1111.4
2016-Aug-26 03:33N 55°13' E 013°54'1110.9
2016-Aug-26 02:33N 55°13' E 014°13'1110.9
2016-Aug-26 01:33N 55°21' E 014°26'1110.7
2016-Aug-26 00:33N 55°28' E 014°40'1110.8
2016-Aug-25 23:33N 55°33' E 014°57'1111.2
2016-Aug-25 22:33N 55°38' E 015°14'1111.2
2016-Aug-25 21:33N 55°44' E 015°32'1111.4
2016-Aug-25 20:33N 55°50' E 015°49'  
2016-Aug-21 11:31N 55°43' E 015°43'1010.8
2016-Aug-21 10:33N 55°38' E 015°26'1110.7
2016-Aug-21 09:33N 55°33' E 015°10'1110.8
2016-Aug-21 08:33N 55°27' E 014°54'1110.8
2016-Aug-21 07:33N 55°21' E 014°38'1111.2
2016-Aug-21 06:33N 55°13' E 014°24'1111.2
2016-Aug-21 05:33N 55°10' E 014°05'1211.6
2016-Aug-21 04:32N 55°12' E 013°45'1111.7
2016-Aug-21 03:33N 55°13' E 013°24'1211.8
2016-Aug-21 02:33N 55°15' E 013°04'1211.7
2016-Aug-21 01:33N 55°16' E 012°44'10 9.9
2016-Aug-21 00:33N 55°26' E 012°40'1010.3
2016-Aug-20 23:33N 55°36' E 012°42'1010.5
2016-Aug-20 22:33N 55°47' E 012°42'1211.5
2016-Aug-20 21:33N 55°58' E 012°40'10 9.8
2016-Aug-20 20:33N 56°07' E 012°30'1212.2
2016-Aug-20 19:33N 56°14' E 012°13'1312.2
2016-Aug-20 18:29N 56°24' E 011°60'1212.5
2016-Aug-20 17:32N 56°36' E 011°55'1212.2
2016-Aug-20 16:33N 56°48' E 011°49'1211.9
2016-Aug-20 15:32N 56°59' E 011°43'1111.4
2016-Aug-20 14:33N 57°10' E 011°37'1211.6
2016-Aug-20 13:33N 57°21' E 011°28'1111.0
2016-Aug-20 12:33N 57°30' E 011°17'1110.7
2016-Aug-20 11:33N 57°38' E 011°04'1010.4
2016-Aug-20 10:33N 57°45' E 010°49'1510.5
2016-Aug-20 09:09N 57°44' E 010°22'710.4
2016-Aug-20 08:31N 57°41' E 010°10'2311.7
2016-Aug-20 06:33N 57°31' E 009°31'36711.8
2016-Aug-18 23:23N 53°39' E 001°09'1112.5
2016-Aug-18 22:31N 53°32' E 000°56'1313.0
2016-Aug-18 21:33N 53°21' E 000°45'1413.3
2016-Aug-18 20:31N 53°09' E 000°35'1312.9
2016-Aug-18 19:29N 52°57' E 000°23'1010.6
2016-Aug-18 18:32N 52°47' E 000°22'2 1.8
2016-Aug-18 17:33N 52°46' E 000°24'0 0.2
2016-Aug-18 16:33N 52°46' E 000°24'0 0.0
2016-Aug-18 15:31N 52°46' E 000°24'0 0.0
2016-Aug-18 14:29N 52°46' E 000°24'0 0.0
2016-Aug-18 13:32N 52°46' E 000°24'0 0.0
2016-Aug-18 12:31N 52°46' E 000°24'0 0.0
2016-Aug-18 11:33N 52°46' E 000°24'0 0.0
2016-Aug-18 10:29N 52°46' E 000°24'0 0.0
2016-Aug-18 09:25N 52°46' E 000°24'0 0.0
2016-Aug-18 08:28N 52°46' E 000°24'0 0.0
2016-Aug-18 07:33N 52°46' E 000°24'0 0.0
2016-Aug-18 06:33N 52°46' E 000°24'1 0.6
2016-Aug-18 05:32N 52°46' E 000°23'7 7.0
2016-Aug-18 04:33N 52°53' E 000°22'5 5.3
2016-Aug-18 03:32N 52°58' E 000°23'1 0.7
2016-Aug-18 02:34N 52°58' E 000°22'10 9.7
2016-Aug-18 01:32N 53°06' E 000°31'9 8.6
2016-Aug-18 00:31N 53°14' E 000°37'7 7.4
2016-Aug-17 23:33N 53°21' E 000°34'7 7.5
2016-Aug-17 22:33N 53°26' E 000°25'7 7.5
2016-Aug-17 21:33N 53°31' E 000°16'10 9.9
2016-Aug-17 20:33N 53°35' E 000°01'1312.7
2016-Aug-17 19:34N 53°44' W 000°15'1 1.1
2016-Aug-17 18:33N 53°45' W 000°16'0 0.0
2016-Aug-17 17:33N 53°45' W 000°16'0 0.0
2016-Aug-17 16:34N 53°45' W 000°16'0 0.0
2016-Aug-17 15:33N 53°45' W 000°16'0 0.0
2016-Aug-17 14:34N 53°45' W 000°16'0 0.0
2016-Aug-17 13:33N 53°45' W 000°16'0 0.0
2016-Aug-17 12:34N 53°45' W 000°16'0 0.0
2016-Aug-17 11:34N 53°45' W 000°16'0 0.0
2016-Aug-17 10:33N 53°45' W 000°16'0 0.0
2016-Aug-17 09:33N 53°45' W 000°16'0 0.0
2016-Aug-17 08:33N 53°45' W 000°16'0 0.0
2016-Aug-17 07:33N 53°45' W 000°16'0 0.0
2016-Aug-17 06:33N 53°45' W 000°16'0 0.0
2016-Aug-17 05:34N 53°45' W 000°16'0 0.0
2016-Aug-17 04:33N 53°45' W 000°16'0 0.0
2016-Aug-17 03:33N 53°45' W 000°16'0 0.0
2016-Aug-17 02:34N 53°45' W 000°16'0 0.0
2016-Aug-17 01:34N 53°45' W 000°16'0 0.0
2016-Aug-17 00:34N 53°45' W 000°16'0 0.0
2016-Aug-16 23:34N 53°45' W 000°16'0 0.0
2016-Aug-16 22:33N 53°45' W 000°16'  

Dump ship's entire track history